createdAt,value
2019-05-09T00:01:33.573Z,84.30
2019-05-09T00:04:04.875Z,84.40
2019-05-09T00:06:34.903Z,84.30
2019-05-09T00:09:06.994Z,84.20
2019-05-09T00:11:37.462Z,84.20
2019-05-09T00:14:07.726Z,84.20
2019-05-09T00:16:38.359Z,84.00
2019-05-09T00:19:08.555Z,84.00
2019-05-09T00:21:40.150Z,83.80
2019-05-09T00:24:10.411Z,83.60
2019-05-09T00:26:40.651Z,83.20
2019-05-09T00:29:13.935Z,83.00
2019-05-09T00:31:45.181Z,82.70
2019-05-09T00:34:16.756Z,82.60
2019-05-09T00:36:46.971Z,82.50
2019-05-09T00:39:17.433Z,82.30
2019-05-09T00:41:47.906Z,82.10
2019-05-09T00:44:19.529Z,81.70
2019-05-09T00:46:53.392Z,81.40
2019-05-09T00:49:24.164Z,81.40
2019-05-09T00:51:54.370Z,81.20
2019-05-09T00:54:24.813Z,81.10
2019-05-09T00:56:55.223Z,80.90
2019-05-09T00:59:25.366Z,80.80
2019-05-09T01:01:55.963Z,80.60
2019-05-09T01:04:26.230Z,80.40
2019-05-09T01:06:56.378Z,80.20
2019-05-09T01:09:26.976Z,80.00
2019-05-09T01:11:57.774Z,80.00
2019-05-09T01:14:27.903Z,79.70
2019-05-09T01:16:58.150Z,79.50
2019-05-09T01:19:28.493Z,79.30
2019-05-09T01:21:58.657Z,79.00
2019-05-09T01:24:29.916Z,78.70
2019-05-09T01:27:00.181Z,78.70
2019-05-09T01:29:30.262Z,78.30
2019-05-09T01:32:03.423Z,78.10
2019-05-09T01:34:34.922Z,78.10
2019-05-09T01:37:05.876Z,77.90
2019-05-09T01:39:37.176Z,78.00
2019-05-09T01:42:07.688Z,77.90
2019-05-09T01:44:37.937Z,77.80
2019-05-09T01:47:08.309Z,77.60
2019-05-09T01:49:38.797Z,77.50
2019-05-09T01:52:09.006Z,77.20
2019-05-09T01:54:40.949Z,77.20
2019-05-09T01:57:13.658Z,76.90
2019-05-09T01:59:44.342Z,77.00
2019-05-09T02:02:14.960Z,76.90
2019-05-09T02:04:45.487Z,76.70
2019-05-09T02:07:15.797Z,76.60
2019-05-09T02:09:46.899Z,76.40
2019-05-09T02:12:17.317Z,76.30
2019-05-09T02:14:49.174Z,76.10
2019-05-09T02:17:20.609Z,76.10
2019-05-09T02:19:52.810Z,76.00
2019-05-09T02:22:24.041Z,75.90
2019-05-09T02:24:54.301Z,75.70
2019-05-09T02:27:24.631Z,75.60
2019-05-09T02:29:54.891Z,76.30
2019-05-09T02:32:59.829Z,75.50
2019-05-09T02:35:36.259Z,75.20
2019-05-09T02:38:01.914Z,74.90
2019-05-09T02:40:32.343Z,74.90
2019-05-09T02:43:02.579Z,74.80
2019-05-09T02:45:34.186Z,74.70
2019-05-09T02:48:04.658Z,74.70
2019-05-09T02:50:34.875Z,74.50
2019-05-09T02:53:08.001Z,74.40
2019-05-09T02:55:38.688Z,74.20
2019-05-09T02:58:09.899Z,74.20
2019-05-09T03:00:41.647Z,74.00
2019-05-09T03:03:13.389Z,74.00
2019-05-09T03:05:45.057Z,73.80
2019-05-09T03:08:18.967Z,73.60
2019-05-09T03:10:49.034Z,73.60
2019-05-09T03:13:19.416Z,73.40
2019-05-09T03:15:51.186Z,73.30
2019-05-09T03:18:21.537Z,73.30
2019-05-09T03:20:53.149Z,73.10
2019-05-09T03:23:23.598Z,73.00
2019-05-09T03:25:53.820Z,72.90
2019-05-09T03:28:28.209Z,72.90
2019-05-09T03:30:59.379Z,72.90
2019-05-09T03:33:35.294Z,72.80
2019-05-09T03:36:02.305Z,72.60
2019-05-09T03:38:32.691Z,72.60
2019-05-09T03:41:02.932Z,72.50
2019-05-09T03:43:33.474Z,72.20
2019-05-09T03:46:04.878Z,72.00
2019-05-09T03:48:37.431Z,71.80
2019-05-09T03:51:08.222Z,71.70
2019-05-09T03:53:38.573Z,71.70
2019-05-09T03:58:01.188Z,71.60
2019-05-09T04:00:31.580Z,71.70
2019-05-09T04:03:01.926Z,71.40
2019-05-09T04:05:32.122Z,71.30
2019-05-09T04:08:03.604Z,71.30
2019-05-09T04:10:33.921Z,71.30
2019-05-09T04:13:04.334Z,70.80
2019-05-09T04:15:34.558Z,70.60
2019-05-09T04:18:04.936Z,70.50
2019-05-09T04:20:35.201Z,70.40
2019-05-09T04:23:07.830Z,70.30
2019-05-09T04:25:38.521Z,70.00
2019-05-09T04:28:08.942Z,69.60
2019-05-09T04:30:39.152Z,69.10
2019-05-09T04:33:09.345Z,69.00
2019-05-09T04:35:39.803Z,68.70
2019-05-09T04:38:10.013Z,68.40
2019-05-09T04:40:45.039Z,68.00
2019-05-09T04:43:18.301Z,68.00
2019-05-09T04:45:44.958Z,68.10
2019-05-09T04:48:20.376Z,68.00
2019-05-09T04:50:48.456Z,67.50
2019-05-09T04:53:18.709Z,67.70
2019-05-09T04:55:49.027Z,67.70
2019-05-09T04:58:19.413Z,67.40
2019-05-09T05:00:50.944Z,67.20
2019-05-09T05:03:21.267Z,67.20
2019-05-09T05:05:51.581Z,67.20
2019-05-09T05:08:21.954Z,67.20
2019-05-09T05:10:52.095Z,67.00
2019-05-09T05:13:26.279Z,67.70
2019-05-09T05:15:54.036Z,66.80
2019-05-09T05:18:24.292Z,66.50
2019-05-09T05:20:57.437Z,66.60
2019-05-09T05:23:28.033Z,66.20
2019-05-09T05:25:58.272Z,66.30
2019-05-09T05:28:28.668Z,66.10
2019-05-09T05:30:58.856Z,65.60
2019-05-09T05:33:30.348Z,65.40
2019-05-09T05:36:02.149Z,65.20
2019-05-09T05:38:32.593Z,65.50
2019-05-09T05:41:03.118Z,65.40
2019-05-09T05:43:43.325Z,65.20
2019-05-09T05:46:07.655Z,64.80
2019-05-09T05:48:39.710Z,64.40
2019-05-09T05:51:10.127Z,64.10
2019-05-09T05:53:40.585Z,64.10
2019-05-09T05:56:10.919Z,64.10
2019-05-09T05:58:41.411Z,64.00
2019-05-09T06:01:11.750Z,63.50
2019-05-09T06:03:42.233Z,63.50
2019-05-09T06:06:12.623Z,63.80
2019-05-09T06:08:42.867Z,63.70
2019-05-09T06:11:13.325Z,63.60
2019-05-09T06:13:56.185Z,62.90
2019-05-09T06:16:17.694Z,62.40
2019-05-09T06:18:47.532Z,62.70
2019-05-09T06:21:18.256Z,62.80
2019-05-09T06:23:48.658Z,62.70
2019-05-09T06:26:19.911Z,62.20
2019-05-09T06:28:51.088Z,62.00
2019-05-09T06:31:21.429Z,61.60
2019-05-09T06:33:53.528Z,61.60
2019-05-09T06:36:24.882Z,61.50
2019-05-09T06:38:55.148Z,61.60
2019-05-09T06:41:25.461Z,61.30
2019-05-09T06:44:11.011Z,60.80
2019-05-09T06:46:30.148Z,61.10
2019-05-09T06:49:20.448Z,61.00
2019-05-09T06:51:33.265Z,60.70
2019-05-09T06:54:03.427Z,60.60
2019-05-09T06:56:33.966Z,60.40
2019-05-09T06:59:04.652Z,60.50
2019-05-09T07:01:37.550Z,60.60
2019-05-09T07:04:09.632Z,60.50
2019-05-09T07:06:41.248Z,60.10
2019-05-09T07:09:12.818Z,60.10
2019-05-09T07:11:43.167Z,60.10
2019-05-09T07:14:28.322Z,60.00
2019-05-09T07:16:47.848Z,60.20
2019-05-09T07:19:18.465Z,60.30
2019-05-09T07:21:50.078Z,60.40
2019-05-09T07:24:20.875Z,60.20
2019-05-09T07:26:50.923Z,60.10
2019-05-09T07:29:21.198Z,60.00
2019-05-09T07:31:52.753Z,60.10
2019-05-09T07:34:24.325Z,59.80
2019-05-09T07:36:54.956Z,59.40
2019-05-09T07:39:25.103Z,59.10
2019-05-09T07:41:57.724Z,58.60
2019-05-09T07:44:37.790Z,58.60
2019-05-09T07:47:00.583Z,58.60
2019-05-09T07:49:31.368Z,58.50
2019-05-09T07:52:06.880Z,58.30
2019-05-09T07:54:33.477Z,58.30
2019-05-09T07:57:04.192Z,58.40
2019-05-09T07:59:34.631Z,58.50
2019-05-09T08:02:04.833Z,58.40
2019-05-09T08:04:38.260Z,58.20
2019-05-09T08:07:08.387Z,57.70
2019-05-09T08:09:39.070Z,58.30
2019-05-09T08:12:09.376Z,58.40
2019-05-09T08:14:39.804Z,58.40
2019-05-09T08:17:09.960Z,58.30
2019-05-09T08:19:40.227Z,58.40
2019-05-09T08:22:10.964Z,58.20
2019-05-09T08:24:41.508Z,58.30
2019-05-09T08:27:11.563Z,58.30
2019-05-09T08:29:41.747Z,58.30
2019-05-09T08:32:11.970Z,58.40
2019-05-09T08:34:42.500Z,58.50
2019-05-09T08:37:12.771Z,58.50
2019-05-09T08:39:43.109Z,58.80
2019-05-09T08:42:13.510Z,58.90
2019-05-09T08:44:43.877Z,59.00
2019-05-09T08:47:14.203Z,59.20
2019-05-09T08:49:47.361Z,59.30
2019-05-09T08:52:19.800Z,59.30
2019-05-09T08:54:50.375Z,59.30
2019-05-09T08:57:20.817Z,59.10
2019-05-09T08:59:51.652Z,59.20
2019-05-09T09:02:22.614Z,59.20
2019-05-09T09:04:53.043Z,59.50
2019-05-09T09:07:23.307Z,59.50
2019-05-09T09:09:53.631Z,59.60
2019-05-09T09:12:31.356Z,59.70
2019-05-09T09:14:55.582Z,59.30
2019-05-09T09:17:27.871Z,59.50
2019-05-09T09:19:58.205Z,59.50
2019-05-09T09:22:29.071Z,59.70
2019-05-09T09:24:59.276Z,59.70
2019-05-09T09:27:30.583Z,59.70
2019-05-09T09:30:16.457Z,60.20
2019-05-09T09:32:32.436Z,60.90
2019-05-09T09:35:02.866Z,62.50
2019-05-09T09:37:48.172Z,64.20
2019-05-09T09:40:08.529Z,64.80
2019-05-09T09:42:39.723Z,66.30
2019-05-09T09:45:10.435Z,66.40
2019-05-09T09:47:40.817Z,69.10
2019-05-09T09:50:12.955Z,70.50
2019-05-09T09:52:43.532Z,72.80
2019-05-09T09:55:13.849Z,74.70
2019-05-09T09:57:44.645Z,76.10
2019-05-09T10:00:18.121Z,76.90
2019-05-09T10:02:48.373Z,80.80
2019-05-09T10:05:18.762Z,78.80
2019-05-09T10:07:49.132Z,78.50
2019-05-09T10:10:22.003Z,77.70
2019-05-09T10:12:52.224Z,77.10
2019-05-09T10:15:27.936Z,76.70
2019-05-09T10:17:58.826Z,77.50
2019-05-09T10:20:30.655Z,77.30
2019-05-09T10:23:11.018Z,76.20
2019-05-09T10:25:32.736Z,75.80
2019-05-09T10:28:02.870Z,75.50
2019-05-09T10:30:38.048Z,75.50
2019-05-09T10:33:09.146Z,75.80
2019-05-09T10:36:38.410Z,75.70
2019-05-09T10:39:08.367Z,75.60
2019-05-09T10:41:38.843Z,75.60
2019-05-09T10:44:10.456Z,75.60
2019-05-09T10:46:52.591Z,76.10
2019-05-09T10:49:13.758Z,76.10
2019-05-09T10:51:44.071Z,76.30
2019-05-09T10:54:14.476Z,76.80
2019-05-09T10:56:44.717Z,77.10
2019-05-09T10:59:15.077Z,77.40
2019-05-09T11:01:45.483Z,77.20
2019-05-09T11:04:17.875Z,77.60
2019-05-09T11:06:47.600Z,77.80
2019-05-09T11:09:30.188Z,78.10
2019-05-09T11:12:02.535Z,78.50
2019-05-09T11:14:37.543Z,78.90
2019-05-09T11:17:17.615Z,79.30
2019-05-09T11:19:41.730Z,79.70
2019-05-09T11:22:14.269Z,80.00
2019-05-09T11:24:50.985Z,80.30
2019-05-09T11:29:53.116Z,80.90
2019-05-09T11:35:17.620Z,81.10
2019-05-09T11:37:50.207Z,81.60
2019-05-09T11:40:22.710Z,81.80
2019-05-09T11:42:55.708Z,81.70
2019-05-09T11:45:28.139Z,81.80
2019-05-09T11:48:03.129Z,81.90
2019-05-09T11:50:38.828Z,81.90
2019-05-09T11:53:14.209Z,81.90
2019-05-09T11:55:48.160Z,81.90
2019-05-09T11:58:22.522Z,82.10
2019-05-09T12:00:54.662Z,82.20
2019-05-09T12:03:26.158Z,82.20
2019-05-09T12:05:58.620Z,82.10
2019-05-09T12:08:29.920Z,83.10
2019-05-09T12:13:32.705Z,82.50
2019-05-09T12:16:02.979Z,82.50
2019-05-09T12:18:33.394Z,82.60
2019-05-09T12:21:03.647Z,82.70
2019-05-09T12:23:33.762Z,82.80
2019-05-09T12:26:04.201Z,83.00
2019-05-09T12:28:34.651Z,83.10
2019-05-09T12:31:07.309Z,83.20
2019-05-09T12:33:36.914Z,83.30
2019-05-09T12:36:09.233Z,83.70
2019-05-09T12:38:39.399Z,83.70
2019-05-09T12:41:09.695Z,83.80
2019-05-09T12:43:40.051Z,84.00
2019-05-09T12:46:10.359Z,84.00
2019-05-09T12:48:40.632Z,84.20
2019-05-09T12:51:10.961Z,84.20
2019-05-09T12:53:41.386Z,84.40
2019-05-09T12:56:11.579Z,84.40
2019-05-09T12:58:41.980Z,84.40
2019-05-09T13:01:12.727Z,84.40
2019-05-09T13:03:43.059Z,84.50
2019-05-09T13:06:13.470Z,84.50
2019-05-09T13:08:44.228Z,84.40
2019-05-09T13:11:14.469Z,84.30
2019-05-09T13:13:44.706Z,84.30
2019-05-09T13:16:17.708Z,84.10
2019-05-09T13:18:49.097Z,84.10
2019-05-09T13:21:19.397Z,84.20
2019-05-09T13:23:52.231Z,84.20
2019-05-09T13:26:21.389Z,84.20
2019-05-09T13:28:51.792Z,84.20
2019-05-09T13:31:22.193Z,84.30
2019-05-09T13:33:52.478Z,84.30
2019-05-09T13:36:22.898Z,84.30
2019-05-09T13:38:58.043Z,84.30
2019-05-09T13:41:25.459Z,84.40
2019-05-09T13:43:59.242Z,84.40
2019-05-09T13:46:28.242Z,84.50
2019-05-09T13:49:10.985Z,84.40
2019-05-09T13:51:30.604Z,84.50
2019-05-09T13:54:00.918Z,84.70
2019-05-09T13:56:31.144Z,84.70
2019-05-09T13:59:01.814Z,84.80
2019-05-09T14:01:32.060Z,84.70
2019-05-09T14:04:02.737Z,84.70
2019-05-09T14:06:32.887Z,84.60
2019-05-09T14:09:03.047Z,84.60
2019-05-09T14:11:33.314Z,84.50
2019-05-09T14:14:03.629Z,84.60
2019-05-09T14:16:34.176Z,84.60
2019-05-09T14:19:26.145Z,84.70
2019-05-09T14:21:36.340Z,84.70
2019-05-09T14:24:14.184Z,84.80
2019-05-09T14:26:38.438Z,84.80
2019-05-09T14:29:12.603Z,85.00
2019-05-09T14:31:40.360Z,85.00
2019-05-09T14:34:10.917Z,84.80
2019-05-09T14:36:45.448Z,84.70
2019-05-09T14:39:12.913Z,84.60
2019-05-09T14:41:45.186Z,84.50
2019-05-09T14:44:14.696Z,84.60
2019-05-09T14:46:47.962Z,84.60
2019-05-09T14:49:17.620Z,84.60
2019-05-09T14:51:49.996Z,84.60
2019-05-09T14:54:20.164Z,84.60
2019-05-09T14:56:50.410Z,84.60
2019-05-09T14:59:20.681Z,84.50
2019-05-09T15:01:50.867Z,84.60
2019-05-09T15:04:21.556Z,84.70
2019-05-09T15:06:51.599Z,84.90
2019-05-09T15:09:21.935Z,84.70
2019-05-09T15:11:52.198Z,84.60
2019-05-09T15:14:22.476Z,84.70
2019-05-09T15:16:52.762Z,84.70
2019-05-09T15:19:23.106Z,84.60
2019-05-09T15:21:56.698Z,84.70
2019-05-09T15:24:25.038Z,84.80
2019-05-09T15:26:55.317Z,85.00
2019-05-09T15:29:28.780Z,85.00
2019-05-09T15:32:04.650Z,85.10
2019-05-09T15:34:29.475Z,85.20
2019-05-09T15:36:59.954Z,85.20
2019-05-09T15:39:30.346Z,85.20
2019-05-09T15:42:00.592Z,85.40
2019-05-09T15:44:30.966Z,85.40
2019-05-09T15:47:02.564Z,85.50
2019-05-09T15:49:33.076Z,85.60
2019-05-09T15:52:03.329Z,85.60
2019-05-09T15:54:33.646Z,85.60
2019-05-09T15:57:04.015Z,85.70
2019-05-09T15:59:34.200Z,85.70
2019-05-09T16:02:04.715Z,85.80
2019-05-09T16:04:35.454Z,85.70
2019-05-09T16:07:05.716Z,85.60
2019-05-09T16:09:37.814Z,85.60
2019-05-09T16:12:07.923Z,85.60
2019-05-09T16:14:38.294Z,85.60
2019-05-09T16:17:08.691Z,85.50
2019-05-09T16:19:39.113Z,85.50
2019-05-09T16:22:09.493Z,85.60
2019-05-09T16:24:39.671Z,86.10
2019-05-09T16:27:10.175Z,85.60
2019-05-09T16:29:40.347Z,85.50
2019-05-09T16:32:11.039Z,85.50
2019-05-09T16:34:41.066Z,85.60
2019-05-09T16:37:11.584Z,85.60
2019-05-09T16:39:42.115Z,85.60
2019-05-09T16:42:12.261Z,85.60
2019-05-09T16:44:42.663Z,85.60
2019-05-09T16:47:12.989Z,85.50
2019-05-09T16:49:43.153Z,85.60
2019-05-09T16:52:13.877Z,85.60
2019-05-09T16:54:49.796Z,85.70
2019-05-09T16:57:18.220Z,85.70
2019-05-09T16:59:48.787Z,85.70
2019-05-09T17:02:24.820Z,85.70
2019-05-09T17:04:50.799Z,85.50
2019-05-09T17:07:21.193Z,85.50
2019-05-09T17:09:51.485Z,85.40
2019-05-09T17:12:21.547Z,85.30
2019-05-09T17:14:51.768Z,85.30
2019-05-09T17:17:22.183Z,85.20
2019-05-09T17:19:52.252Z,85.20
2019-05-09T17:22:23.853Z,85.20
2019-05-09T17:24:54.366Z,85.20
2019-05-09T17:27:24.842Z,85.20
2019-05-09T17:29:55.062Z,85.40
2019-05-09T17:32:25.303Z,85.30
2019-05-09T17:34:58.139Z,85.30
2019-05-09T17:37:28.704Z,85.30
2019-05-09T17:39:59.052Z,85.30
2019-05-09T17:42:29.699Z,85.20
2019-05-09T17:44:59.987Z,86.10
2019-05-09T17:47:30.427Z,85.20
2019-05-09T17:50:00.812Z,85.10
2019-05-09T17:52:31.130Z,85.30
2019-05-09T17:55:01.263Z,85.30
2019-05-09T17:57:31.645Z,85.50
2019-05-09T18:00:01.981Z,85.70
2019-05-09T18:02:32.246Z,85.80
2019-05-09T18:05:02.370Z,85.90
2019-05-09T18:07:33.059Z,85.80
2019-05-09T18:10:03.494Z,85.90
2019-05-09T18:12:33.848Z,85.80
2019-05-09T18:15:04.477Z,85.80
2019-05-09T18:17:34.907Z,86.50
2019-05-09T18:20:08.042Z,85.80
2019-05-09T18:22:38.896Z,85.80
2019-05-09T18:25:09.781Z,85.70
2019-05-09T18:27:39.966Z,85.70
2019-05-09T18:30:11.029Z,85.70
2019-05-09T18:32:42.749Z,86.40
2019-05-09T18:35:14.585Z,85.60
2019-05-09T18:37:44.592Z,85.60
2019-05-09T18:40:17.831Z,85.80
2019-05-09T18:42:47.631Z,85.90
2019-05-09T18:45:18.661Z,85.90
2019-05-09T18:47:49.110Z,85.90
2019-05-09T18:50:19.697Z,86.00
2019-05-09T18:52:49.950Z,86.10
2019-05-09T18:55:20.357Z,86.10
2019-05-09T18:57:51.123Z,86.10
2019-05-09T19:00:22.326Z,86.20
2019-05-09T19:02:52.637Z,86.20
2019-05-09T19:05:23.277Z,86.40
2019-05-09T19:07:53.427Z,86.50
2019-05-09T19:10:24.116Z,86.50
2019-05-09T19:12:54.412Z,86.50
2019-05-09T19:15:26.094Z,86.40
2019-05-09T19:17:57.734Z,86.40
2019-05-09T19:20:29.608Z,86.40
2019-05-09T19:22:59.906Z,86.30
2019-05-09T19:25:30.125Z,86.30
2019-05-09T19:28:00.439Z,86.30
2019-05-09T19:30:30.582Z,86.20
2019-05-09T19:33:01.004Z,86.20
2019-05-09T19:35:31.161Z,86.20
2019-05-09T19:38:01.638Z,86.30
2019-05-09T19:40:31.703Z,86.40
2019-05-09T19:43:02.098Z,86.50
2019-05-09T19:45:32.495Z,86.50
2019-05-09T19:48:02.914Z,86.60
2019-05-09T19:50:33.178Z,86.50
2019-05-09T19:53:03.502Z,86.60
2019-05-09T19:55:33.795Z,86.70
2019-05-09T19:58:04.119Z,86.60
2019-05-09T20:00:34.513Z,86.50
2019-05-09T20:03:04.831Z,86.40
2019-05-09T20:05:34.997Z,86.40
2019-05-09T20:08:05.431Z,86.50
2019-05-09T20:10:37.214Z,86.40
2019-05-09T20:13:08.920Z,86.40
2019-05-09T20:15:39.276Z,86.40
2019-05-09T20:18:09.541Z,86.40
2019-05-09T20:20:39.941Z,86.40
2019-05-09T20:23:10.236Z,86.50
2019-05-09T20:25:40.504Z,86.60
2019-05-09T20:28:10.836Z,86.70
2019-05-09T20:30:41.410Z,86.60
2019-05-09T20:33:11.848Z,86.70
2019-05-09T20:35:42.233Z,86.80
2019-05-09T20:38:12.638Z,86.70
2019-05-09T20:40:43.264Z,86.70
2019-05-09T20:43:13.737Z,86.60
2019-05-09T20:45:44.587Z,86.60
2019-05-09T20:48:15.216Z,86.60
2019-05-09T20:50:45.768Z,86.80
2019-05-09T20:53:16.302Z,86.70
2019-05-09T20:55:46.823Z,86.70
2019-05-09T20:58:17.274Z,86.80
2019-05-09T21:00:47.688Z,86.80
2019-05-09T21:03:18.088Z,86.70
2019-05-09T21:05:48.641Z,87.60
2019-05-09T21:08:19.140Z,86.80
2019-05-09T21:10:49.714Z,86.90
2019-05-09T21:13:20.211Z,86.90
2019-05-09T21:15:50.637Z,87.00
2019-05-09T21:18:21.075Z,87.10
2019-05-09T21:20:51.848Z,87.10
2019-05-09T21:23:24.680Z,87.10
2019-05-09T21:25:53.955Z,87.00
2019-05-09T21:28:24.411Z,86.90
2019-05-09T21:30:54.854Z,86.90
2019-05-09T21:33:25.253Z,86.90
2019-05-09T21:35:55.611Z,86.80
2019-05-09T21:38:25.939Z,86.70
2019-05-09T21:40:56.172Z,86.70
2019-05-09T21:43:26.366Z,86.60
2019-05-09T21:45:56.886Z,86.60
2019-05-09T21:48:26.984Z,86.50
2019-05-09T21:50:57.380Z,86.60
2019-05-09T21:53:39.873Z,86.60
2019-05-09T21:55:59.488Z,86.60
2019-05-09T21:58:29.707Z,86.50
2019-05-09T22:01:01.480Z,86.60
2019-05-09T22:03:31.905Z,86.60
2019-05-09T22:06:02.137Z,86.50
2019-05-09T22:08:32.363Z,86.60
2019-05-09T22:11:03.112Z,86.70
2019-05-09T22:13:33.420Z,86.90
2019-05-09T22:16:03.768Z,86.60
2019-05-09T22:18:34.076Z,86.60
2019-05-09T22:21:04.408Z,87.40
2019-05-09T22:23:34.800Z,86.60
2019-05-09T22:26:05.062Z,86.60
2019-05-09T22:28:35.291Z,86.70
2019-05-09T22:31:05.638Z,86.80
2019-05-09T22:33:35.728Z,86.80
2019-05-09T22:36:06.261Z,86.90
2019-05-09T22:38:36.558Z,86.90
2019-05-09T22:41:06.839Z,86.90
2019-05-09T22:43:37.149Z,86.90
2019-05-09T22:46:07.450Z,86.90
2019-05-09T22:48:37.909Z,86.90
2019-05-09T22:51:09.267Z,86.90
2019-05-09T22:53:40.214Z,87.00
2019-05-09T22:56:10.678Z,87.00
2019-05-09T22:58:41.248Z,87.00
2019-05-09T23:01:11.683Z,87.00
2019-05-09T23:03:41.892Z,86.90
2019-05-09T23:06:12.342Z,86.90
2019-05-09T23:08:42.736Z,86.90
2019-05-09T23:11:12.944Z,86.80
2019-05-09T23:13:44.656Z,86.80
2019-05-09T23:16:14.963Z,87.50
2019-05-09T23:18:45.164Z,86.70
2019-05-09T23:21:15.638Z,86.60
2019-05-09T23:23:47.050Z,86.60
2019-05-09T23:26:18.547Z,86.60
2019-05-09T23:28:48.880Z,86.60
2019-05-09T23:31:20.592Z,86.50
2019-05-09T23:33:50.887Z,86.50
2019-05-09T23:36:21.133Z,86.50
2019-05-09T23:38:52.713Z,86.50
2019-05-09T23:41:22.979Z,86.50
2019-05-09T23:43:53.504Z,86.40
2019-05-09T23:46:24.273Z,86.50
2019-05-09T23:48:55.094Z,86.50
2019-05-09T23:51:26.724Z,86.40
2019-05-09T23:53:56.730Z,86.30
2019-05-09T23:56:28.208Z,86.30
2019-05-09T23:59:00.002Z,86.20
